METAR AND TAF INFORMATION
METAR FOR GOBD
ADDS - METARS form results

(0242 UTC 03 February 2023)
Data provider http://aviationweather.gov/metar/data/
 
METAR text: GOBD 030230Z 01014KT 8000 NSC 19/13 Q1013 NOSIG
Conditions at: GOBD (DAKAR/DIAGNE , SN) observed 0230 UTC 03 February 2023
Temperature: 19.0°C (66°F)
Dewpoint: 13.0°C (55°F) [RH = 68%]
Pressure (altimeter): 29.91 inches Hg (1013.0 mb)
Winds: from the N (10 degrees) at 16 MPH (14 knots; 7.2 m/s)
Visibility: 5 miles ( 8 km)
Ceiling: at least 12,000 feet AGL
Clouds: sky clear below 12,000 feet AGL
Weather: no significant weather observed at this time

METAR text: GOBD 030200Z 36013KT 8000 NSC 19/12 Q1014 NOSIG
Conditions at: GOBD (DAKAR/DIAGNE , SN) observed 0200 UTC 03 February 2023
Temperature: 19.0°C (66°F)
Dewpoint: 12.0°C (54°F) [RH = 64%]
Pressure (altimeter): 29.94 inches Hg (1014.0 mb)
Winds: from the N (360 degrees) at 15 MPH (13 knots; 6.7 m/s)
Visibility: 5 miles ( 8 km)
Ceiling: at least 12,000 feet AGL
Clouds: sky clear below 12,000 feet AGL
Weather: no significant weather observed at this time

Forecast for: GOBD (DAKAR/DIAGNE , SN)
Text: TAF GOBD 022300Z 0300/0406 01010KT CAVOK
Forecast period: 0000 UTC 03 February 2023 to 0600 UTC 04 February 2023
Forecast type: FROM: standard forecast or significant change
Winds: from the N (10 degrees) at 12 MPH (10 knots; 5.1 m/s)
Visibility: 6 or more miles (10+ km)
Ceiling: unknown
Clouds: missing
Weather: NSW  (no significant weather)

 AIRPORT MAP

 RUNWAY INFORMATION

 AIRPORT FREQUENCIES

 AIRPORT NEAR NAVIGATION AIDS



Powered by Virtual Airlines Manager [v2.6.2]